createdAt,value
2022-07-26T00:00:14.170Z,94215.41
2022-07-26T00:02:47.358Z,94219.72
2022-07-26T00:05:16.516Z,94226.47
2022-07-26T00:07:43.677Z,94223.78
2022-07-26T00:10:10.596Z,94222.63
2022-07-26T00:12:37.581Z,94214.03
2022-07-26T00:15:07.392Z,94211.75
2022-07-26T00:17:34.143Z,94208.56
2022-07-26T00:20:00.775Z,94206.63
2022-07-26T00:22:36.533Z,94210.53
2022-07-26T00:25:05.083Z,94217.97
2022-07-26T00:27:32.904Z,94214.44
2022-07-26T00:29:59.551Z,94213.28
2022-07-26T00:32:26.344Z,94208.22
2022-07-26T00:34:53.213Z,94208.31
2022-07-26T00:37:20.878Z,94222.00
2022-07-26T00:39:48.616Z,94204.84
2022-07-26T00:42:15.484Z,94201.75
2022-07-26T00:44:45.148Z,94207.19
2022-07-26T00:47:12.877Z,94205.59
2022-07-26T00:49:40.239Z,94202.50
2022-07-26T00:52:09.146Z,94204.03
2022-07-26T00:54:37.432Z,94203.69
2022-07-26T00:57:04.841Z,94198.66
2022-07-26T00:59:31.860Z,94198.25
2022-07-26T01:01:58.773Z,94197.91
2022-07-26T01:04:25.968Z,94204.88
2022-07-26T01:06:53.413Z,94198.28
2022-07-26T01:09:20.176Z,94181.59
2022-07-26T01:11:46.921Z,94192.50
2022-07-26T01:14:14.028Z,94200.72
2022-07-26T01:16:41.005Z,94205.47
2022-07-26T01:19:08.068Z,94201.28
2022-07-26T01:21:35.083Z,94192.00
2022-07-26T01:24:02.521Z,94199.78
2022-07-26T01:26:29.278Z,94189.66
2022-07-26T01:28:56.048Z,94200.59
2022-07-26T01:31:23.631Z,94190.88
2022-07-26T01:33:51.337Z,94193.59
2022-07-26T01:36:18.055Z,94192.09
2022-07-26T01:38:45.241Z,94185.84
2022-07-26T01:41:12.066Z,94189.38
2022-07-26T01:43:39.208Z,94193.66
2022-07-26T01:46:09.362Z,94190.97
2022-07-26T01:48:36.521Z,94185.91
2022-07-26T01:51:03.448Z,94193.28
2022-07-26T01:53:30.106Z,94190.53
2022-07-26T01:55:56.921Z,94195.19
2022-07-26T01:58:23.600Z,94191.31
2022-07-26T02:00:50.323Z,94186.31
2022-07-26T02:03:17.071Z,94180.50
2022-07-26T02:05:43.851Z,94189.06
2022-07-26T02:08:11.149Z,94175.84
2022-07-26T02:10:56.825Z,94188.69
2022-07-26T02:13:23.658Z,94189.50
2022-07-26T02:15:50.525Z,94189.56
2022-07-26T02:18:17.363Z,94181.38
2022-07-26T02:20:44.314Z,94170.56
2022-07-26T02:23:11.090Z,94179.13
2022-07-26T02:25:37.848Z,94186.13
2022-07-26T02:28:04.898Z,94176.06
2022-07-26T02:30:31.628Z,94183.06
2022-07-26T02:32:58.316Z,94180.75
2022-07-26T02:35:25.114Z,94192.44
2022-07-26T02:37:51.854Z,94182.31
2022-07-26T02:40:19.515Z,94181.91
2022-07-26T02:42:46.692Z,94183.84
2022-07-26T02:45:13.439Z,94190.06
2022-07-26T02:47:51.506Z,94198.66
2022-07-26T02:50:19.738Z,94204.09
2022-07-26T02:52:48.247Z,94216.66
2022-07-26T02:55:21.687Z,94225.66
2022-07-26T02:57:49.394Z,94223.41
2022-07-26T03:00:21.402Z,94218.38
2022-07-26T03:02:49.432Z,94223.91
2022-07-26T03:05:16.546Z,94223.94
2022-07-26T03:07:43.221Z,94210.69
2022-07-26T03:10:10.087Z,94218.50
2022-07-26T03:12:36.913Z,94221.63
2022-07-26T03:15:03.993Z,94219.28
2022-07-26T03:17:30.718Z,94227.44
2022-07-26T03:19:59.236Z,94225.50
2022-07-26T03:22:25.902Z,94229.00
2022-07-26T03:24:52.615Z,94216.56
2022-07-26T03:27:19.325Z,94224.72
2022-07-26T03:29:46.024Z,94232.91
2022-07-26T03:32:12.721Z,94224.72
2022-07-26T03:34:39.393Z,94238.72
2022-07-26T03:37:06.125Z,94229.41
2022-07-26T03:39:32.888Z,94227.84
2022-07-26T03:41:59.645Z,94228.63
2022-07-26T03:44:26.271Z,94233.28
2022-07-26T03:46:52.982Z,94229.41
2022-07-26T03:49:19.716Z,94239.91
2022-07-26T03:51:46.710Z,94234.44
2022-07-26T03:54:13.429Z,94234.84
2022-07-26T03:56:40.768Z,94237.56
2022-07-26T03:59:09.834Z,94226.66
2022-07-26T04:01:42.081Z,94230.94
2022-07-26T04:04:10.575Z,94229.38
2022-07-26T04:06:39.342Z,94232.50
2022-07-26T04:09:07.324Z,94236.38
2022-07-26T04:11:35.211Z,94237.16
2022-07-26T04:14:02.254Z,94236.78
2022-07-26T04:16:29.372Z,94231.31
2022-07-26T04:18:56.455Z,94230.94
2022-07-26T04:21:23.268Z,94219.66
2022-07-26T04:23:51.478Z,94234.44
2022-07-26T04:26:21.159Z,94223.56
2022-07-26T04:28:48.095Z,94217.72
2022-07-26T04:31:15.094Z,94232.47
2022-07-26T04:33:41.813Z,94238.72
2022-07-26T04:36:08.946Z,94230.16
2022-07-26T04:38:35.595Z,94234.81
2022-07-26T04:41:02.337Z,94239.09
2022-07-26T04:43:29.026Z,94237.91
2022-07-26T04:45:57.566Z,94246.13
2022-07-26T04:48:24.808Z,94238.72
2022-07-26T04:50:51.975Z,94243.00
2022-07-26T04:53:18.883Z,94235.19
2022-07-26T04:55:45.988Z,94237.97
2022-07-26T04:58:12.788Z,94236.00
2022-07-26T05:03:26.628Z,94234.81
2022-07-26T05:05:53.791Z,94238.31
2022-07-26T05:08:20.548Z,94231.31
2022-07-26T05:10:51.617Z,94236.41
2022-07-26T05:13:23.141Z,94246.91
2022-07-26T05:15:57.012Z,94245.72
2022-07-26T05:18:23.662Z,94240.69
2022-07-26T05:20:51.541Z,94238.72
2022-07-26T05:23:19.944Z,94237.19
2022-07-26T05:25:46.909Z,94241.84
2022-07-26T05:28:13.593Z,94250.41
2022-07-26T05:30:40.268Z,94227.81
2022-07-26T05:33:06.931Z,94244.94
2022-07-26T05:35:33.617Z,94252.72
2022-07-26T05:38:00.296Z,94247.28
2022-07-26T05:40:27.086Z,94243.78
2022-07-26T05:42:53.810Z,94248.44
2022-07-26T05:45:20.494Z,94247.25
2022-07-26T05:47:52.922Z,94239.50
2022-07-26T05:50:20.043Z,94247.66
2022-07-26T05:52:46.785Z,94250.38
2022-07-26T05:55:13.919Z,94242.59
2022-07-26T05:57:42.062Z,94251.16
2022-07-26T06:00:12.185Z,94236.78
2022-07-26T06:02:39.129Z,94234.81
2022-07-26T06:05:06.635Z,94243.00
2022-07-26T06:07:33.913Z,94244.91
2022-07-26T06:10:00.587Z,94242.88
2022-07-26T06:12:27.363Z,94247.75
2022-07-26T06:14:53.999Z,94237.78
2022-07-26T06:17:20.861Z,94241.47
2022-07-26T06:19:47.967Z,94239.53
2022-07-26T06:22:15.510Z,94242.75
2022-07-26T06:24:42.144Z,94235.66
2022-07-26T06:27:08.848Z,94235.06
2022-07-26T06:29:35.560Z,94242.72
2022-07-26T06:32:02.368Z,94247.13
2022-07-26T06:34:29.247Z,94239.13
2022-07-26T06:36:56.027Z,94241.28
2022-07-26T06:39:22.667Z,94258.50
2022-07-26T06:41:49.354Z,94248.53
2022-07-26T06:44:22.659Z,94250.06
2022-07-26T06:46:49.889Z,94247.03
2022-07-26T06:49:20.587Z,94252.44
2022-07-26T06:51:49.029Z,94249.25
2022-07-26T06:54:15.774Z,94257.91
2022-07-26T06:56:42.459Z,94255.81
2022-07-26T06:59:09.608Z,94255.53
2022-07-26T07:01:58.433Z,94263.59
2022-07-26T07:04:23.270Z,94262.63
2022-07-26T07:06:50.058Z,94249.22
2022-07-26T07:09:17.377Z,94262.00
2022-07-26T07:11:46.003Z,94250.06
2022-07-26T07:14:15.529Z,94241.97
2022-07-26T07:16:42.286Z,94260.06
2022-07-26T07:19:09.024Z,94258.72
2022-07-26T07:21:35.776Z,94244.28
2022-07-26T07:24:02.435Z,94248.53
2022-07-26T07:26:29.385Z,94231.59
2022-07-26T07:28:56.342Z,94249.84
2022-07-26T07:31:30.397Z,94241.09
2022-07-26T07:33:57.743Z,94239.25
2022-07-26T07:36:24.601Z,94237.91
2022-07-26T07:38:51.903Z,94232.41
2022-07-26T07:41:19.088Z,94233.63
2022-07-26T07:43:46.028Z,94232.94
2022-07-26T07:46:13.351Z,94232.94
2022-07-26T07:48:46.998Z,94239.09
2022-07-26T07:51:14.333Z,94240.16
2022-07-26T07:53:41.020Z,94230.91
2022-07-26T07:56:08.013Z,94241.00
2022-07-26T07:58:34.763Z,94237.88
2022-07-26T08:01:01.687Z,94240.44
2022-07-26T08:03:38.886Z,94246.22
2022-07-26T08:06:07.460Z,94236.41
2022-07-26T08:08:34.843Z,94244.91
2022-07-26T08:11:01.747Z,94248.72
2022-07-26T08:13:30.524Z,94239.66
2022-07-26T08:15:59.397Z,94250.41
2022-07-26T08:18:27.828Z,94255.94
2022-07-26T08:20:55.477Z,94251.69
2022-07-26T08:23:22.222Z,94262.75
2022-07-26T08:25:58.579Z,94265.53
2022-07-26T08:31:15.253Z,94271.66
2022-07-26T08:33:46.082Z,94264.25
2022-07-26T08:36:17.367Z,94258.31
2022-07-26T08:38:44.791Z,94266.19
2022-07-26T08:41:14.352Z,94265.25
2022-07-26T08:43:50.646Z,94268.50
2022-07-26T08:46:24.728Z,94273.00
2022-07-26T08:48:52.479Z,94263.47
2022-07-26T08:51:22.741Z,94269.22
2022-07-26T08:53:52.070Z,94267.69
2022-07-26T08:56:18.724Z,94268.13
2022-07-26T08:58:45.687Z,94260.44
2022-07-26T09:01:13.082Z,94265.09
2022-07-26T09:03:41.665Z,94265.44
2022-07-26T09:06:13.211Z,94266.41
2022-07-26T09:08:40.080Z,94272.88
2022-07-26T09:11:25.189Z,94275.19
2022-07-26T09:13:56.695Z,94267.72
2022-07-26T09:16:23.657Z,94269.44
2022-07-26T09:18:50.499Z,94276.53
2022-07-26T09:21:30.210Z,94274.53
2022-07-26T09:23:58.425Z,94265.50
2022-07-26T09:26:26.088Z,94260.78
2022-07-26T09:29:11.033Z,94253.09
2022-07-26T09:31:39.631Z,94263.13
2022-07-26T09:34:09.974Z,94255.78
2022-07-26T09:36:53.596Z,94253.63
2022-07-26T09:39:22.759Z,94259.41
2022-07-26T09:42:27.615Z,94260.28
2022-07-26T09:44:57.116Z,94255.34
2022-07-26T09:47:36.221Z,94250.56
2022-07-26T09:50:30.832Z,94261.19
2022-07-26T09:53:07.590Z,94262.91
2022-07-26T09:55:44.615Z,94252.78
2022-07-26T09:58:16.453Z,94272.66
2022-07-26T10:00:44.188Z,94264.84
2022-07-26T10:03:11.338Z,94260.50
2022-07-26T10:05:38.393Z,94255.25
2022-07-26T10:08:06.312Z,94259.41
2022-07-26T10:10:39.269Z,94254.53
2022-07-26T10:13:07.600Z,94258.16
2022-07-26T10:15:40.438Z,94263.22
2022-07-26T10:18:10.223Z,94255.72
2022-07-26T10:20:46.811Z,94256.34
2022-07-26T10:23:32.295Z,94269.34
2022-07-26T10:26:00.684Z,94265.69
2022-07-26T10:28:30.446Z,94270.63
2022-07-26T10:31:30.410Z,94266.88
2022-07-26T10:33:59.251Z,94268.69
2022-07-26T10:36:37.988Z,94275.31
2022-07-26T10:39:15.608Z,94279.09
2022-07-26T10:41:47.325Z,94276.88
2022-07-26T10:44:29.053Z,94273.09
2022-07-26T10:46:57.130Z,94276.59
2022-07-26T10:49:29.988Z,94272.63
2022-07-26T10:52:15.478Z,94277.94
2022-07-26T10:54:57.531Z,94271.25
2022-07-26T10:57:24.388Z,94285.16
2022-07-26T10:59:56.231Z,94285.97
2022-07-26T11:02:33.269Z,94277.78
2022-07-26T11:05:05.423Z,94273.06
2022-07-26T11:07:32.259Z,94270.19
2022-07-26T11:10:00.453Z,94290.19
2022-07-26T11:12:27.319Z,94274.88
2022-07-26T11:14:54.443Z,94274.44
2022-07-26T11:17:27.459Z,94277.66
2022-07-26T11:19:54.515Z,94268.72
2022-07-26T11:22:21.926Z,94264.88
2022-07-26T11:24:48.672Z,94271.09
2022-07-26T11:27:15.431Z,94267.84
2022-07-26T11:29:42.077Z,94265.16
2022-07-26T11:32:20.388Z,94272.94
2022-07-26T11:34:59.430Z,94260.03
2022-07-26T11:37:26.460Z,94267.41
2022-07-26T11:39:53.252Z,94252.03
2022-07-26T11:42:21.568Z,94262.81
2022-07-26T11:44:49.475Z,94259.34
2022-07-26T11:47:20.615Z,94251.38
2022-07-26T11:50:00.592Z,94264.91
2022-07-26T11:52:36.787Z,94250.50
2022-07-26T11:55:03.757Z,94256.19
2022-07-26T11:57:31.852Z,94254.16
2022-07-26T12:00:00.606Z,94254.50
2022-07-26T12:02:28.879Z,94256.50
2022-07-26T12:05:22.652Z,94253.97
2022-07-26T12:08:05.297Z,94244.63
2022-07-26T12:10:32.172Z,94256.66
2022-07-26T12:13:14.256Z,94265.44
2022-07-26T12:15:52.860Z,94238.56
2022-07-26T12:18:30.507Z,94254.06
2022-07-26T12:21:07.185Z,94247.53
2022-07-26T12:24:00.999Z,94249.22
2022-07-26T12:26:30.828Z,94248.44
2022-07-26T12:29:00.141Z,94249.47
2022-07-26T12:31:32.309Z,94246.09
2022-07-26T12:33:59.942Z,94243.00
2022-07-26T12:36:29.626Z,94237.84
2022-07-26T12:38:58.976Z,94247.44
2022-07-26T12:41:37.497Z,94237.53
2022-07-26T12:44:11.981Z,94248.56
2022-07-26T12:46:39.450Z,94247.63
2022-07-26T12:49:06.295Z,94242.00
2022-07-26T12:51:33.856Z,94231.28
2022-07-26T12:54:00.711Z,94234.75
2022-07-26T12:56:27.480Z,94235.59
2022-07-26T12:58:56.077Z,94247.16
2022-07-26T13:01:22.964Z,94234.75
2022-07-26T13:03:49.728Z,94245.28
2022-07-26T13:06:16.539Z,94243.06
2022-07-26T13:08:43.240Z,94247.34
2022-07-26T13:11:10.328Z,94248.81
2022-07-26T13:13:38.198Z,94253.38
2022-07-26T13:16:11.212Z,94243.56
2022-07-26T13:18:39.628Z,94242.47
2022-07-26T13:21:06.571Z,94243.22
2022-07-26T13:23:35.554Z,94243.13
2022-07-26T13:26:03.471Z,94238.38
2022-07-26T13:28:30.860Z,94241.22
2022-07-26T13:30:57.677Z,94236.41
2022-07-26T13:33:24.484Z,94240.84
2022-07-26T13:35:51.232Z,94238.63
2022-07-26T13:38:19.807Z,94237.44
2022-07-26T13:40:46.665Z,94237.97
2022-07-26T13:43:13.388Z,94234.88
2022-07-26T13:45:40.171Z,94237.38
2022-07-26T13:48:07.322Z,94237.84
2022-07-26T13:50:34.020Z,94237.31
2022-07-26T13:53:00.870Z,94242.41
2022-07-26T13:55:27.556Z,94240.03
2022-07-26T13:57:57.117Z,94236.56
2022-07-26T14:00:29.497Z,94239.75
2022-07-26T14:03:00.049Z,94229.06
2022-07-26T14:05:28.129Z,94236.03
2022-07-26T14:07:55.533Z,94228.94
2022-07-26T14:10:22.904Z,94235.47
2022-07-26T14:12:49.859Z,94228.69
2022-07-26T14:15:22.239Z,94242.34
2022-07-26T14:17:50.445Z,94236.69
2022-07-26T14:20:17.519Z,94238.50
2022-07-26T14:22:44.864Z,94241.47
2022-07-26T14:25:11.651Z,94247.22
2022-07-26T14:27:38.496Z,94244.69
2022-07-26T14:30:05.706Z,94243.66
2022-07-26T14:32:32.459Z,94239.38
2022-07-26T14:34:59.161Z,94249.91
2022-07-26T14:37:42.186Z,94239.31
2022-07-26T14:40:14.201Z,94243.56
2022-07-26T14:42:41.100Z,94237.91
2022-07-26T14:45:09.724Z,94237.31
2022-07-26T14:47:36.716Z,94237.13
2022-07-26T14:50:06.883Z,94241.09
2022-07-26T14:52:36.901Z,94240.00
2022-07-26T14:55:04.165Z,94242.88
2022-07-26T14:57:30.983Z,94233.97
2022-07-26T14:59:59.375Z,94238.91
2022-07-26T15:02:26.234Z,94240.00
2022-07-26T15:04:53.006Z,94236.19
2022-07-26T15:07:19.763Z,94237.81
2022-07-26T15:09:46.557Z,94230.31
2022-07-26T15:12:13.388Z,94224.81
2022-07-26T15:14:41.150Z,94228.88
2022-07-26T15:17:07.887Z,94235.38
2022-07-26T15:19:35.292Z,94232.41
2022-07-26T15:22:02.218Z,94233.41
2022-07-26T15:24:29.103Z,94241.22
2022-07-26T15:26:55.812Z,94229.75
2022-07-26T15:29:22.522Z,94236.34
2022-07-26T15:31:49.514Z,94243.97
2022-07-26T15:34:16.717Z,94224.53
2022-07-26T15:36:43.701Z,94219.97
2022-07-26T15:39:18.560Z,94218.59
2022-07-26T15:41:47.360Z,94209.25
2022-07-26T15:44:16.930Z,94218.34
2022-07-26T15:46:47.936Z,94211.84
2022-07-26T15:49:16.639Z,94220.09
2022-07-26T15:51:43.595Z,94217.66
2022-07-26T15:54:13.042Z,94213.16
2022-07-26T15:56:40.396Z,94208.63
2022-07-26T15:59:07.343Z,94216.38
2022-07-26T16:01:35.614Z,94212.81
2022-07-26T16:04:03.563Z,94212.06
2022-07-26T16:06:30.351Z,94205.53
2022-07-26T16:09:15.899Z,94206.41
2022-07-26T16:11:43.929Z,94204.34
2022-07-26T16:14:10.676Z,94194.13
2022-07-26T16:16:37.443Z,94200.59
2022-07-26T16:19:04.125Z,94195.59
2022-07-26T16:21:31.995Z,94202.72
2022-07-26T16:24:01.832Z,94204.91
2022-07-26T16:26:32.907Z,94207.13
2022-07-26T16:29:00.561Z,94201.44
2022-07-26T16:31:27.387Z,94200.09
2022-07-26T16:33:54.143Z,94191.16
2022-07-26T16:36:20.865Z,94191.31
2022-07-26T16:38:47.602Z,94181.06
2022-07-26T16:41:14.309Z,94180.41
2022-07-26T16:43:41.541Z,94188.41
2022-07-26T16:46:08.493Z,94192.34
2022-07-26T16:48:35.295Z,94185.09
2022-07-26T16:51:02.181Z,94186.31
2022-07-26T16:53:28.989Z,94190.94
2022-07-26T16:55:55.838Z,94187.06
2022-07-26T16:58:22.893Z,94182.44
2022-07-26T17:00:49.796Z,94186.13
2022-07-26T17:03:16.836Z,94201.22
2022-07-26T17:05:45.913Z,94185.94
2022-07-26T17:08:12.776Z,94191.69
2022-07-26T17:10:39.454Z,94186.44
2022-07-26T17:13:06.320Z,94190.25
2022-07-26T17:15:33.260Z,94186.31
2022-07-26T17:17:59.988Z,94189.56
2022-07-26T17:20:27.275Z,94186.88
2022-07-26T17:22:54.087Z,94178.22
2022-07-26T17:25:20.755Z,94190.19
2022-07-26T17:27:47.605Z,94186.41
2022-07-26T17:30:14.632Z,94182.53
2022-07-26T17:32:41.898Z,94176.06
2022-07-26T17:35:09.496Z,94186.66
2022-07-26T17:37:36.378Z,94188.38
2022-07-26T17:40:07.822Z,94191.97
2022-07-26T17:42:35.188Z,94184.34
2022-07-26T17:45:02.150Z,94180.69
2022-07-26T17:47:30.518Z,94193.25
2022-07-26T17:50:33.947Z,94198.38
2022-07-26T17:52:50.430Z,94194.50
2022-07-26T17:55:19.140Z,94189.59
2022-07-26T17:57:48.239Z,94198.59
2022-07-26T18:00:16.981Z,94198.53
2022-07-26T18:02:43.698Z,94199.78
2022-07-26T18:05:11.273Z,94203.34
2022-07-26T18:07:38.922Z,94194.34
2022-07-26T18:10:06.764Z,94196.38
2022-07-26T18:12:33.539Z,94187.94
2022-07-26T18:15:00.227Z,94187.66
2022-07-26T18:17:26.936Z,94183.47
2022-07-26T18:19:53.591Z,94189.00
2022-07-26T18:22:20.387Z,94187.53
2022-07-26T18:24:47.063Z,94190.00
2022-07-26T18:27:13.712Z,94180.69
2022-07-26T18:29:40.376Z,94179.09
2022-07-26T18:32:07.203Z,94187.72
2022-07-26T18:34:33.884Z,94186.16
2022-07-26T18:37:00.626Z,94189.50
2022-07-26T18:39:32.946Z,94194.81
2022-07-26T18:42:01.199Z,94194.91
2022-07-26T18:44:27.872Z,94187.53
2022-07-26T18:46:56.385Z,94188.78
2022-07-26T18:49:30.733Z,94201.69
2022-07-26T18:52:04.224Z,94204.53
2022-07-26T18:54:35.383Z,94203.50
2022-07-26T18:57:02.114Z,94209.03
2022-07-26T18:59:29.764Z,94204.44
2022-07-26T19:01:58.840Z,94211.06
2022-07-26T19:04:26.111Z,94209.13
2022-07-26T19:06:52.895Z,94209.25
2022-07-26T19:09:19.866Z,94210.94
2022-07-26T19:11:46.546Z,94208.72
2022-07-26T19:14:13.831Z,94207.19
2022-07-26T19:16:40.580Z,94219.31
2022-07-26T19:19:07.309Z,94230.34
2022-07-26T19:21:33.998Z,94234.69
2022-07-26T19:24:00.673Z,94235.09
2022-07-26T19:26:27.662Z,94230.44
2022-07-26T19:28:54.540Z,94233.59
2022-07-26T19:31:21.992Z,94233.66
2022-07-26T19:33:48.770Z,94228.66
2022-07-26T19:36:18.236Z,94238.81
2022-07-26T19:38:52.377Z,94242.41
2022-07-26T19:41:20.060Z,94244.41
2022-07-26T19:43:46.886Z,94242.06
2022-07-26T19:46:13.704Z,94245.22
2022-07-26T19:48:40.464Z,94244.03
2022-07-26T19:51:07.158Z,94251.81
2022-07-26T19:53:33.950Z,94254.94
2022-07-26T19:56:00.664Z,94275.59
2022-07-26T19:58:29.276Z,94269.00
2022-07-26T20:00:56.348Z,94277.25
2022-07-26T20:03:23.167Z,94275.69
2022-07-26T20:05:50.256Z,94280.31
2022-07-26T20:08:16.929Z,94281.94
2022-07-26T20:10:43.644Z,94280.34
2022-07-26T20:13:10.444Z,94281.94
2022-07-26T20:15:37.113Z,94284.69
2022-07-26T20:18:04.746Z,94282.38
2022-07-26T20:20:31.657Z,94276.94
2022-07-26T20:22:58.618Z,94281.97
2022-07-26T20:25:25.335Z,94281.59
2022-07-26T20:27:52.923Z,94282.41
2022-07-26T20:30:19.754Z,94279.25
2022-07-26T20:32:46.455Z,94278.84
2022-07-26T20:35:13.134Z,94283.91
2022-07-26T20:37:41.129Z,94279.63
2022-07-26T20:40:09.143Z,94286.63
2022-07-26T20:42:38.384Z,94289.75
2022-07-26T20:45:11.269Z,94288.59
2022-07-26T20:47:43.135Z,94278.91
2022-07-26T20:50:13.323Z,94280.47
2022-07-26T20:52:40.075Z,94283.56
2022-07-26T20:55:08.105Z,94277.34
2022-07-26T20:57:35.532Z,94280.47
2022-07-26T21:00:05.514Z,94278.94
2022-07-26T21:02:32.565Z,94270.41
2022-07-26T21:04:59.935Z,94263.44
2022-07-26T21:07:55.609Z,94273.16
2022-07-26T21:10:14.064Z,94274.75
2022-07-26T21:12:41.148Z,94273.56
2022-07-26T21:15:08.266Z,94268.13
2022-07-26T21:17:36.384Z,94273.59
2022-07-26T21:20:05.424Z,94272.03
2022-07-26T21:22:33.055Z,94273.25
2022-07-26T21:25:00.457Z,94275.22
2022-07-26T21:27:27.528Z,94276.00
2022-07-26T21:29:54.647Z,94277.16
2022-07-26T21:32:24.544Z,94270.16
2022-07-26T21:34:52.934Z,94268.59
2022-07-26T21:37:19.948Z,94265.09
2022-07-26T21:39:47.014Z,94267.41
2022-07-26T21:42:14.688Z,94264.69
2022-07-26T21:44:41.717Z,94269.38
2022-07-26T21:47:08.363Z,94268.22
2022-07-26T21:49:35.059Z,94266.28
2022-07-26T21:52:02.224Z,94274.06
2022-07-26T21:54:30.089Z,94269.81
2022-07-26T21:56:56.772Z,94272.94
2022-07-26T21:59:23.652Z,94281.50
2022-07-26T22:01:50.516Z,94276.81
2022-07-26T22:04:18.196Z,94274.47
2022-07-26T22:06:45.603Z,94272.16
2022-07-26T22:09:12.998Z,94269.03
2022-07-26T22:11:40.367Z,94271.75
2022-07-26T22:14:08.565Z,94276.47
2022-07-26T22:16:36.578Z,94277.63
2022-07-26T22:19:03.498Z,94279.19
2022-07-26T22:21:30.178Z,94267.50
2022-07-26T22:23:56.917Z,94273.72
2022-07-26T22:26:26.993Z,94268.69
2022-07-26T22:28:53.743Z,94267.50
2022-07-26T22:31:20.444Z,94282.69
2022-07-26T22:33:47.208Z,94286.19
2022-07-26T22:36:14.204Z,94279.19
2022-07-26T22:38:41.127Z,94280.72
2022-07-26T22:41:07.802Z,94283.06
2022-07-26T22:43:34.449Z,94275.66
2022-07-26T22:46:01.138Z,94277.22
2022-07-26T22:48:27.880Z,94273.34
2022-07-26T22:50:54.697Z,94280.72
2022-07-26T22:53:21.627Z,94277.25
2022-07-26T22:55:48.290Z,94265.16
2022-07-26T22:58:14.954Z,94271.78
2022-07-26T23:00:41.751Z,94284.22
2022-07-26T23:03:15.248Z,94277.59
2022-07-26T23:05:47.682Z,94274.50
2022-07-26T23:08:45.296Z,94271.78
2022-07-26T23:11:02.315Z,94271.78
2022-07-26T23:13:29.018Z,94272.16
2022-07-26T23:16:00.283Z,94269.47
2022-07-26T23:18:27.812Z,94266.72
2022-07-26T23:20:54.460Z,94264.75
2022-07-26T23:23:21.377Z,94264.75
2022-07-26T23:25:48.082Z,94267.06
2022-07-26T23:28:35.233Z,94272.91
2022-07-26T23:31:11.802Z,94263.19
2022-07-26T23:33:52.851Z,94261.63
2022-07-26T23:36:29.070Z,94260.84
2022-07-26T23:38:57.602Z,94258.88
2022-07-26T23:41:24.978Z,94260.03
2022-07-26T23:43:52.996Z,94260.41
2022-07-26T23:46:20.252Z,94265.84
2022-07-26T23:48:47.414Z,94263.13
2022-07-26T23:51:14.251Z,94266.22
2022-07-26T23:53:40.943Z,94255.38
2022-07-26T23:56:07.644Z,94253.06
2022-07-26T23:58:34.325Z,94253.84
